Time;durP1;ratioP1;P1;durP2;ratioP2;P2;SDS_P1;SDS_P2;PMS_P1;PMS_P2;Temp;Humidity;BMP_temperature;BMP_pressure;BME280_temperature;BME280_humidity;BME280_pressure;Samples;Min_cycle;Max_cycle;Signal;HPM_P1;HPM_P2
2023/11/20 00:01:46;;;;;;;11.35;3.20;;;9.80;99.90;;;;;;5014364;28;20562;-65
2023/11/20 00:04:11;;;;;;;7.50;3.20;;;9.70;99.90;;;;;;5013259;28;20491;-65
2023/11/20 00:06:37;;;;;;;11.00;2.70;;;9.70;99.90;;;;;;5014715;28;20426;-66
2023/11/20 00:09:02;;;;;;;9.02;2.38;;;9.70;99.90;;;;;;5017992;28;20040;-65
2023/11/20 00:11:28;;;;;;;12.63;3.13;;;9.80;99.90;;;;;;5014817;28;20029;-66
2023/11/20 00:13:53;;;;;;;10.40;2.95;;;9.80;99.90;;;;;;5017095;28;20033;-66
2023/11/20 00:16:19;;;;;;;6.63;2.80;;;9.80;99.90;;;;;;5012723;28;20057;-65
2023/11/20 00:18:44;;;;;;;9.57;2.58;;;9.80;99.90;;;;;;5016444;28;20026;-66
2023/11/20 00:21:10;;;;;;;9.07;2.70;;;9.80;99.90;;;;;;5014191;28;20048;-65
2023/11/20 00:23:35;;;;;;;9.63;2.55;;;9.90;99.90;;;;;;5016163;28;20044;-65
2023/11/20 00:26:01;;;;;;;5.75;2.70;;;9.80;99.90;;;;;;5015218;28;20026;-66
2023/11/20 00:28:27;;;;;;;10.18;3.25;;;9.80;99.90;;;;;;5014523;28;20030;-66
2023/11/20 00:30:52;;;;;;;10.35;2.78;;;9.80;99.90;;;;;;5018647;28;20774;-65
2023/11/20 00:33:17;;;;;;;6.65;2.47;;;9.80;99.90;;;;;;5028396;28;20026;-65
2023/11/20 00:35:43;;;;;;;12.68;3.28;;;9.80;99.90;;;;;;5013475;28;20029;-64
2023/11/20 00:38:08;;;;;;;5.18;2.30;;;9.80;99.90;;;;;;5011863;28;20176;-65
2023/11/20 00:40:34;;;;;;;8.57;3.00;;;9.80;99.90;;;;;;5018816;28;20036;-66
2023/11/20 00:43:00;;;;;;;8.00;2.70;;;9.80;99.90;;;;;;5019557;28;20032;-66
2023/11/20 00:45:26;;;;;;;10.27;3.35;;;9.80;99.90;;;;;;5018220;28;20033;-66
2023/11/20 00:47:51;;;;;;;10.63;2.42;;;9.80;99.90;;;;;;5020187;28;20033;-66
2023/11/20 00:50:17;;;;;;;8.73;3.15;;;9.80;99.90;;;;;;5018570;28;20022;-66
2023/11/20 00:52:42;;;;;;;10.40;2.97;;;9.80;99.90;;;;;;5024420;28;20018;-66
2023/11/20 00:55:12;;;;;;;8.55;2.67;;;9.80;99.90;;;;;;5023293;28;20033;-66
2023/11/20 00:57:38;;;;;;;9.57;2.75;;;9.90;99.90;;;;;;5015752;28;20036;-65
2023/11/20 01:00:14;;;;;;;9.15;2.60;;;9.80;99.90;;;;;;5013997;28;20034;-66
2023/11/20 01:02:40;;;;;;;15.80;2.92;;;9.80;99.90;;;;;;5016578;28;20055;-66
2023/11/20 01:05:07;;;;;;;7.50;2.90;;;9.90;99.90;;;;;;5010611;28;20040;-66
2023/11/20 01:07:33;;;;;;;7.35;3.15;;;9.90;99.90;;;;;;5015466;28;20049;-66
2023/11/20 01:09:58;;;;;;;15.07;2.88;;;9.80;99.90;;;;;;5017440;28;20041;-66
2023/11/20 01:12:24;;;;;;;9.70;2.75;;;9.80;99.90;;;;;;5006702;28;20555;-66
2023/11/20 01:14:50;;;;;;;9.65;3.13;;;9.80;99.90;;;;;;5009903;28;20494;-66
2023/11/20 01:17:16;;;;;;;8.13;2.88;;;9.80;99.90;;;;;;5012399;28;20060;-66
2023/11/20 01:19:43;;;;;;;13.57;3.30;;;9.90;99.90;;;;;;5020939;28;20435;-68
2023/11/20 01:22:09;;;;;;;8.95;3.13;;;9.90;99.90;;;;;;5022800;28;20033;-66
2023/11/20 01:24:34;;;;;;;10.15;3.38;;;9.90;99.90;;;;;;5021470;28;20618;-65
2023/11/20 01:27:00;;;;;;;11.25;3.10;;;9.90;99.90;;;;;;5021050;28;20049;-66
2023/11/20 01:29:25;;;;;;;6.60;2.83;;;9.90;99.90;;;;;;5026618;28;20028;-66
2023/11/20 01:31:51;;;;;;;8.52;2.35;;;9.90;99.90;;;;;;5022495;28;20099;-67
2023/11/20 01:34:16;;;;;;;13.10;3.75;;;9.90;99.90;;;;;;5022854;28;20056;-65
2023/11/20 01:36:41;;;;;;;8.90;3.38;;;9.90;99.90;;;;;;5016466;28;20072;-67
2023/11/20 01:39:08;;;;;;;8.40;2.72;;;9.90;99.90;;;;;;5020889;28;20075;-66
2023/11/20 01:41:34;;;;;;;11.18;2.60;;;9.90;99.90;;;;;;5028009;28;20068;-66
2023/11/20 01:44:00;;;;;;;14.98;2.90;;;9.90;99.90;;;;;;5024066;28;20047;-66
2023/11/20 01:46:27;;;;;;;9.77;3.30;;;9.90;99.90;;;;;;5015755;28;20111;-65
2023/11/20 01:48:53;;;;;;;8.80;2.75;;;9.90;99.90;;;;;;5006823;28;20026;-65
2023/11/20 01:51:19;;;;;;;9.65;3.00;;;9.90;99.90;;;;;;5013496;28;20082;-65
2023/11/20 01:53:45;;;;;;;11.45;3.25;;;9.90;99.90;;;;;;5015802;28;20029;-65
2023/11/20 01:56:13;;;;;;;10.63;2.70;;;9.80;99.90;;;;;;5014733;28;20585;-65
2023/11/20 01:58:39;;;;;;;10.30;2.88;;;9.80;99.90;;;;;;5014676;28;20014;-67
2023/11/20 02:01:05;;;;;;;7.30;3.10;;;9.80;99.90;;;;;;5015558;28;20033;-64
2023/11/20 02:03:32;;;;;;;8.25;2.50;;;9.80;99.90;;;;;;5016425;28;20053;-65
2023/11/20 02:05:57;;;;;;;8.77;2.58;;;9.80;99.90;;;;;;5010628;28;20429;-65
2023/11/20 02:08:27;;;;;;;5.30;2.45;;;9.80;99.90;;;;;;5012414;28;20029;-65
2023/11/20 02:10:53;;;;;;;11.48;3.08;;;9.80;99.90;;;;;;5014855;28;20156;-59
2023/11/20 02:13:19;;;;;;;9.65;2.40;;;9.80;99.90;;;;;;5018341;28;20452;-57
2023/11/20 02:15:44;;;;;;;8.52;2.20;;;9.80;99.90;;;;;;5014434;28;20766;-57
2023/11/20 02:18:30;;;;;;;9.73;2.25;;;9.80;99.90;;;;;;5014091;28;20026;-56
2023/11/20 02:20:56;;;;;;;6.63;2.33;;;9.80;99.90;;;;;;5017108;28;20049;-57
2023/11/20 02:23:22;;;;;;;6.18;2.67;;;9.80;99.90;;;;;;5015233;28;20095;-58
2023/11/20 02:25:57;;;;;;;8.90;2.55;;;9.80;99.90;;;;;;5013818;28;20532;-56
2023/11/20 02:28:27;;;;;;;8.25;2.35;;;9.80;99.90;;;;;;5014350;28;20022;-58
2023/11/20 02:30:54;;;;;;;14.43;2.65;;;9.70;99.90;;;;;;5012603;28;20030;-57
2023/11/20 02:33:20;;;;;;;14.18;2.88;;;9.70;99.90;;;;;;5014086;28;20030;-57
2023/11/20 02:35:45;;;;;;;7.93;2.35;;;9.80;99.90;;;;;;5011782;28;20048;-58
2023/11/20 02:38:11;;;;;;;5.68;2.67;;;9.80;99.90;;;;;;5011688;28;20037;-57
2023/11/20 02:40:36;;;;;;;11.70;2.60;;;9.70;99.90;;;;;;5014489;28;20400;-57
2023/11/20 02:43:02;;;;;;;9.63;2.63;;;9.70;99.90;;;;;;5015998;28;20040;-58
2023/11/20 02:45:28;;;;;;;5.82;2.13;;;9.80;99.90;;;;;;5017797;28;20025;-57
2023/11/20 02:47:53;;;;;;;5.72;1.98;;;9.70;99.90;;;;;;5011999;28;20539;-57
2023/11/20 02:50:18;;;;;;;7.78;2.20;;;9.70;99.90;;;;;;5013102;28;20109;-57
2023/11/20 02:52:44;;;;;;;8.40;2.00;;;9.70;99.90;;;;;;5014518;28;20013;-57
2023/11/20 02:55:09;;;;;;;9.57;2.10;;;9.70;99.90;;;;;;5019714;28;20057;-55
2023/11/20 02:57:35;;;;;;;9.48;2.17;;;9.80;99.90;;;;;;5018359;28;20746;-57
2023/11/20 03:00:00;;;;;;;12.18;2.42;;;9.70;99.90;;;;;;5011270;28;20053;-57
2023/11/20 03:02:26;;;;;;;5.22;2.13;;;9.70;99.90;;;;;;5017712;28;20029;-57
2023/11/20 03:04:54;;;;;;;11.40;2.10;;;9.70;99.90;;;;;;5013599;28;20089;-58
2023/11/20 03:07:20;;;;;;;8.50;2.40;;;9.70;99.90;;;;;;5017200;28;20424;-57
2023/11/20 03:09:46;;;;;;;9.20;2.65;;;9.70;99.90;;;;;;5014018;28;20021;-58
2023/11/20 03:12:12;;;;;;;7.57;2.20;;;9.70;99.90;;;;;;5011642;28;20083;-58
2023/11/20 03:14:37;;;;;;;3.38;1.65;;;9.70;99.90;;;;;;5015221;28;20547;-57
2023/11/20 03:17:04;;;;;;;7.07;1.80;;;9.70;99.90;;;;;;5013914;28;20080;-57
2023/11/20 03:19:30;;;;;;;10.07;2.22;;;9.70;99.90;;;;;;5009936;28;20042;-57
2023/11/20 03:21:56;;;;;;;6.85;1.75;;;9.70;99.90;;;;;;5014921;28;20525;-57
2023/11/20 03:24:21;;;;;;;7.55;1.90;;;9.70;99.90;;;;;;5011374;28;20061;-57
2023/11/20 03:26:47;;;;;;;6.53;2.10;;;9.70;99.90;;;;;;5013589;28;20022;-58
2023/11/20 03:29:12;;;;;;;3.83;1.92;;;9.70;99.90;;;;;;5013247;28;20021;-55
2023/11/20 03:31:38;;;;;;;4.43;1.60;;;9.70;99.90;;;;;;5011394;28;20109;-58
2023/11/20 03:34:05;;;;;;;5.72;1.60;;;9.70;99.90;;;;;;5015313;28;20026;-56
2023/11/20 03:36:32;;;;;;;12.85;2.10;;;9.70;99.90;;;;;;5009776;28;20026;-58
2023/11/20 03:38:59;;;;;;;5.63;1.80;;;9.70;99.90;;;;;;5010563;28;20065;-57
2023/11/20 03:41:24;;;;;;;4.13;1.70;;;9.70;99.90;;;;;;5016499;28;20525;-57
2023/11/20 03:43:50;;;;;;;6.03;1.98;;;9.70;99.90;;;;;;5017291;28;20049;-57
2023/11/20 03:46:15;;;;;;;5.05;1.50;;;9.70;99.90;;;;;;5013888;28;20072;-57
2023/11/20 03:48:41;;;;;;;6.88;1.85;;;9.70;99.90;;;;;;5018614;28;20021;-56
2023/11/20 03:51:06;;;;;;;6.45;1.70;;;9.70;99.90;;;;;;5016230;28;20030;-56
2023/11/20 03:53:32;;;;;;;7.00;2.20;;;9.80;99.90;;;;;;5014505;28;20030;-55
2023/11/20 03:55:57;;;;;;;19.77;6.95;;;9.70;99.90;;;;;;5016281;28;20120;-57
2023/11/20 03:58:23;;;;;;;22.67;8.48;;;9.80;99.90;;;;;;5016863;28;20029;-57
2023/11/20 04:00:48;;;;;;;17.77;5.55;;;9.70;99.90;;;;;;5014951;28;20516;-57
2023/11/20 04:03:14;;;;;;;13.60;4.93;;;9.70;99.90;;;;;;5020781;28;20113;-56
2023/11/20 04:05:39;;;;;;;6.72;3.22;;;9.80;99.90;;;;;;5016647;28;20021;-55
2023/11/20 04:08:05;;;;;;;5.43;2.63;;;9.70;99.90;;;;;;5015950;28;20026;-58
2023/11/20 04:10:30;;;;;;;8.30;3.00;;;9.70;99.90;;;;;;5017877;28;20032;-57
2023/11/20 04:12:56;;;;;;;5.00;1.63;;;9.70;99.90;;;;;;5018257;28;20013;-57
2023/11/20 04:15:22;;;;;;;4.50;1.98;;;9.80;99.90;;;;;;5019489;28;20037;-57
2023/11/20 04:17:48;;;;;;;7.70;2.10;;;9.70;99.90;;;;;;5016717;28;20021;-57
2023/11/20 04:20:13;;;;;;;7.43;1.75;;;9.70;99.90;;;;;;5018279;28;20037;-57
2023/11/20 04:22:39;;;;;;;3.40;1.50;;;9.70;99.90;;;;;;5018541;28;20049;-57
2023/11/20 04:25:05;;;;;;;7.45;2.00;;;9.80;99.90;;;;;;5022560;28;20025;-58
2023/11/20 04:27:31;;;;;;;5.25;1.80;;;9.80;99.90;;;;;;5022808;28;20448;-57
2023/11/20 04:29:57;;;;;;;4.45;1.67;;;9.80;99.90;;;;;;5020224;28;20018;-57
2023/11/20 04:32:23;;;;;;;2.40;1.13;;;9.70;99.90;;;;;;5022340;28;20405;-57
2023/11/20 04:34:48;;;;;;;5.85;1.42;;;9.70;99.90;;;;;;5020478;28;20088;-55
2023/11/20 04:37:17;;;;;;;5.78;2.00;;;9.70;99.90;;;;;;5010562;28;20095;-57
2023/11/20 04:39:43;;;;;;;3.75;1.55;;;9.70;99.90;;;;;;5017402;28;20083;-57
2023/11/20 04:42:08;;;;;;;4.50;1.42;;;9.70;99.90;;;;;;5018767;28;20579;-55
2023/11/20 04:44:34;;;;;;;4.65;1.40;;;9.70;99.90;;;;;;5019872;28;20516;-58
2023/11/20 04:46:59;;;;;;;2.75;1.70;;;9.70;99.90;;;;;;5018450;28;20100;-58
2023/11/20 04:49:25;;;;;;;4.05;1.48;;;9.70;99.90;;;;;;5014339;28;20038;-57
2023/11/20 04:51:52;;;;;;;6.28;1.88;;;9.70;99.90;;;;;;5018391;28;20026;-56
2023/11/20 04:54:17;;;;;;;4.32;1.13;;;9.70;99.90;;;;;;5027503;28;20025;-58
2023/11/20 04:56:45;;;;;;;4.32;1.20;;;9.80;99.90;;;;;;5020965;28;20391;-58
2023/11/20 04:59:10;;;;;;;2.35;1.40;;;9.80;99.90;;;;;;5015320;28;20033;-55
2023/11/20 05:01:36;;;;;;;4.35;1.40;;;9.80;99.90;;;;;;5016766;28;20037;-57
2023/11/20 05:04:01;;;;;;;1.48;1.20;;;9.70;99.90;;;;;;5014027;28;20025;-58
2023/11/20 05:06:27;;;;;;;2.28;1.05;;;9.80;99.90;;;;;;5016782;28;20033;-56
2023/11/20 05:08:52;;;;;;;3.40;1.40;;;9.70;99.90;;;;;;5018976;28;20033;-57
2023/11/20 05:11:18;;;;;;;4.47;1.27;;;9.70;99.90;;;;;;5023720;28;20151;-58
2023/11/20 05:13:43;;;;;;;6.78;1.70;;;9.80;99.90;;;;;;5020636;28;20028;-58
2023/11/20 05:16:09;;;;;;;6.10;1.40;;;9.70;99.90;;;;;;5019807;28;20022;-58
2023/11/20 05:18:35;;;;;;;4.75;1.52;;;9.70;99.90;;;;;;5019866;28;20033;-56
2023/11/20 05:21:00;;;;;;;3.03;1.55;;;9.70;99.90;;;;;;5012219;28;20030;-58
2023/11/20 05:23:26;;;;;;;5.85;1.58;;;9.70;99.90;;;;;;5017225;28;20057;-58
2023/11/20 05:25:52;;;;;;;2.92;1.52;;;9.70;99.90;;;;;;5015578;28;20036;-56
2023/11/20 05:28:18;;;;;;;8.88;1.73;;;9.70;99.90;;;;;;5014318;28;20025;-57
2023/11/20 05:30:43;;;;;;;4.82;1.48;;;9.70;99.90;;;;;;5013943;28;20028;-57
2023/11/20 05:33:10;;;;;;;7.32;1.42;;;9.70;99.90;;;;;;5012911;28;20371;-57
2023/11/20 05:35:38;;;;;;;3.22;1.50;;;9.70;99.90;;;;;;5020120;28;20086;-59
2023/11/20 05:38:03;;;;;;;3.83;1.30;;;9.70;99.90;;;;;;5010137;28;20038;-58
2023/11/20 05:40:29;;;;;;;3.20;1.40;;;9.70;99.90;;;;;;5018829;28;20504;-54
2023/11/20 05:42:54;;;;;;;5.13;1.40;;;9.80;99.90;;;;;;5016592;28;20080;-59
2023/11/20 05:45:20;;;;;;;5.05;1.35;;;9.70;99.90;;;;;;5019428;28;20121;-57
2023/11/20 05:47:45;;;;;;;4.25;1.20;;;9.70;99.90;;;;;;5030748;28;20083;-58
2023/11/20 05:50:11;;;;;;;4.30;1.55;;;9.80;99.90;;;;;;5024296;28;20025;-58
2023/11/20 05:52:37;;;;;;;4.40;1.42;;;9.80;99.90;;;;;;5013924;28;20386;-57
2023/11/20 05:55:04;;;;;;;2.60;1.40;;;9.80;99.90;;;;;;5014838;28;20394;-58
2023/11/20 05:57:30;;;;;;;3.42;1.20;;;9.80;99.90;;;;;;5014542;28;20104;-59
2023/11/20 05:59:55;;;;;;;1.98;1.38;;;9.80;99.90;;;;;;5012658;28;20573;-58
2023/11/20 06:02:21;;;;;;;4.07;1.50;;;9.80;99.90;;;;;;5014523;28;20378;-58
2023/11/20 06:04:46;;;;;;;6.13;1.67;;;9.70;99.90;;;;;;5013232;28;20064;-59
2023/11/20 06:07:13;;;;;;;2.08;1.30;;;9.80;99.90;;;;;;5009740;28;20040;-59
2023/11/20 06:09:40;;;;;;;4.15;1.80;;;9.80;99.90;;;;;;5025569;28;20367;-59
2023/11/20 06:12:06;;;;;;;5.78;1.40;;;9.80;99.90;;;;;;5017891;28;20160;-58
2023/11/20 06:14:33;;;;;;;6.60;1.85;;;9.80;99.90;;;;;;5016581;28;20064;-57
2023/11/20 06:16:58;;;;;;;2.38;1.60;;;9.80;99.90;;;;;;5014130;28;20329;-56
2023/11/20 06:19:27;;;;;;;5.28;1.65;;;9.80;99.90;;;;;;5019559;28;20057;-57
2023/11/20 06:21:54;;;;;;;3.03;1.20;;;9.80;99.90;;;;;;5019953;28;20026;-60
2023/11/20 06:24:20;;;;;;;2.80;1.45;;;9.80;99.90;;;;;;5024076;28;20057;-58
2023/11/20 06:26:46;;;;;;;3.20;1.52;;;9.80;99.90;;;;;;5018797;28;20033;-57
2023/11/20 06:29:11;;;;;;;2.15;1.23;;;9.80;99.90;;;;;;5025642;28;20029;-58
2023/11/20 06:31:37;;;;;;;4.05;1.50;;;9.80;99.90;;;;;;5020559;28;20049;-59
2023/11/20 06:34:03;;;;;;;4.30;1.58;;;9.90;99.90;;;;;;5021548;28;20024;-58
2023/11/20 06:36:29;;;;;;;6.20;2.22;;;9.90;99.90;;;;;;5017325;28;20108;-59
2023/11/20 06:38:55;;;;;;;6.00;2.05;;;9.90;99.90;;;;;;5018087;28;20121;-58
2023/11/20 06:41:24;;;;;;;6.97;1.70;;;9.90;99.90;;;;;;5021683;28;20037;-58
2023/11/20 06:43:50;;;;;;;3.40;1.90;;;9.90;99.90;;;;;;5020269;28;20045;-59
2023/11/20 06:46:23;;;;;;;4.15;1.85;;;9.90;99.90;;;;;;5019734;28;20057;-58
2023/11/20 06:48:49;;;;;;;6.00;2.63;;;9.90;99.90;;;;;;5019677;28;20035;-58
2023/11/20 06:51:15;;;;;;;3.53;2.20;;;9.90;99.90;;;;;;5019557;28;20095;-58
2023/11/20 06:53:43;;;;;;;4.25;2.10;;;10.00;99.90;;;;;;5021124;28;20521;-58
2023/11/20 06:56:19;;;;;;;5.95;2.70;;;10.00;99.90;;;;;;5019691;28;20022;-58
2023/11/20 06:58:45;;;;;;;4.88;2.38;;;10.00;99.90;;;;;;5016472;28;20545;-57
2023/11/20 07:01:14;;;;;;;5.22;2.38;;;10.00;99.90;;;;;;5025209;28;20076;-57
2023/11/20 07:03:42;;;;;;;4.45;2.50;;;10.00;99.90;;;;;;5019294;28;20026;-57
2023/11/20 07:06:10;;;;;;;5.82;2.85;;;10.00;99.90;;;;;;5019340;28;20029;-57
2023/11/20 07:08:36;;;;;;;6.30;2.42;;;10.00;99.90;;;;;;5019362;28;20125;-57
2023/11/20 07:11:01;;;;;;;5.35;3.85;;;10.10;99.90;;;;;;5019421;28;20092;-56
2023/11/20 07:13:27;;;;;;;4.32;2.90;;;10.10;99.90;;;;;;5019529;28;20493;-58
2023/11/20 07:15:52;;;;;;;8.40;3.95;;;10.10;99.90;;;;;;5016769;28;20017;-58
2023/11/20 07:18:18;;;;;;;4.20;2.70;;;10.10;99.90;;;;;;5025449;28;20021;-56
2023/11/20 07:20:44;;;;;;;5.13;2.13;;;10.10;99.90;;;;;;5015361;28;20610;-58
2023/11/20 07:23:09;;;;;;;3.97;2.47;;;10.20;99.90;;;;;;5023263;28;20452;-58
2023/11/20 07:25:35;;;;;;;3.80;2.47;;;10.20;99.90;;;;;;5019270;28;20033;-58
2023/11/20 07:28:01;;;;;;;5.10;2.97;;;10.20;99.90;;;;;;5015125;28;20030;-58
2023/11/20 07:30:27;;;;;;;4.22;2.05;;;10.20;99.90;;;;;;5023191;28;20026;-58
2023/11/20 07:32:55;;;;;;;2.88;2.53;;;10.20;99.90;;;;;;5020901;28;20445;-58
2023/11/20 07:35:20;;;;;;;5.60;3.88;;;10.20;99.90;;;;;;5017038;28;20490;-55
2023/11/20 07:37:46;;;;;;;7.53;3.42;;;10.20;99.90;;;;;;5017609;28;20076;-58
2023/11/20 07:40:11;;;;;;;3.78;2.65;;;10.20;99.90;;;;;;5018895;28;20029;-58
2023/11/20 07:42:38;;;;;;;4.88;2.40;;;10.20;99.90;;;;;;5019149;28;20244;-57
2023/11/20 07:45:04;;;;;;;5.80;2.10;;;10.20;99.90;;;;;;5021333;28;20024;-58
2023/11/20 07:47:30;;;;;;;3.45;2.13;;;10.20;99.90;;;;;;5019095;28;20022;-57
2023/11/20 07:49:55;;;;;;;4.65;2.60;;;10.20;99.90;;;;;;5020891;28;20101;-58
2023/11/20 07:52:21;;;;;;;3.70;2.00;;;10.20;99.90;;;;;;5021908;28;20025;-58
2023/11/20 07:54:47;;;;;;;5.55;2.75;;;10.20;99.90;;;;;;5021314;28;20261;-58
2023/11/20 07:57:15;;;;;;;6.10;4.22;;;10.20;99.90;;;;;;5021174;28;20036;-57
2023/11/20 07:59:41;;;;;;;21.92;10.60;;;10.30;99.90;;;;;;5018969;28;20397;-58
2023/11/20 08:02:07;;;;;;;21.63;12.38;;;10.30;99.90;;;;;;5018779;28;20033;-57
2023/11/20 08:04:33;;;;;;;15.02;9.07;;;10.30;99.90;;;;;;5021043;28;20021;-57
2023/11/20 08:06:59;;;;;;;12.00;6.90;;;10.30;99.90;;;;;;5018856;28;20388;-58
2023/11/20 08:09:24;;;;;;;14.82;7.35;;;10.40;99.90;;;;;;5018654;28;20045;-57
2023/11/20 08:11:50;;;;;;;12.00;6.93;;;10.40;99.90;;;;;;5018947;28;20033;-58
2023/11/20 08:14:15;;;;;;;11.50;5.95;;;10.40;99.90;;;;;;5018136;28;20018;-57
2023/11/20 08:16:41;;;;;;;9.18;6.25;;;10.40;99.90;;;;;;5020118;28;20032;-52
2023/11/20 08:19:07;;;;;;;8.93;5.93;;;10.50;99.90;;;;;;5020837;28;20154;-60
2023/11/20 08:21:32;;;;;;;8.00;5.60;;;10.60;99.90;;;;;;5014876;28;20037;-60
2023/11/20 08:23:58;;;;;;;10.93;5.65;;;10.60;99.90;;;;;;5018790;28;20250;-61
2023/11/20 08:26:23;;;;;;;7.10;5.72;;;10.60;99.90;;;;;;5020192;28;20046;-60
2023/11/20 08:28:50;;;;;;;8.10;5.30;;;10.70;99.90;;;;;;5022350;28;20063;-60
2023/11/20 08:31:16;;;;;;;8.80;6.18;;;10.70;99.90;;;;;;5022959;28;20397;-60
2023/11/20 08:33:41;;;;;;;10.15;6.80;;;10.70;99.90;;;;;;5032234;28;20017;-61
2023/11/20 08:36:08;;;;;;;10.05;5.72;;;10.80;99.90;;;;;;5025574;28;20029;-60
2023/11/20 08:38:34;;;;;;;9.98;6.10;;;10.80;99.90;;;;;;5021683;28;20049;-61
2023/11/20 08:41:00;;;;;;;8.00;5.35;;;10.80;99.90;;;;;;5022064;28;20045;-60
2023/11/20 08:43:27;;;;;;;7.03;4.60;;;10.80;99.90;;;;;;5019064;28;20032;-60
2023/11/20 08:45:53;;;;;;;8.35;5.10;;;10.90;99.90;;;;;;5023620;28;20049;-60
2023/11/20 08:48:19;;;;;;;7.78;4.30;;;10.90;99.90;;;;;;5021968;28;20053;-60
2023/11/20 08:50:44;;;;;;;8.82;4.63;;;10.90;99.90;;;;;;5027591;28;20021;-61
2023/11/20 08:53:10;;;;;;;6.88;4.93;;;10.90;99.90;;;;;;5022474;28;20098;-60
2023/11/20 08:55:35;;;;;;;5.85;4.13;;;11.00;99.90;;;;;;5022027;28;20100;-60
2023/11/20 08:58:04;;;;;;;4.43;3.50;;;11.00;99.90;;;;;;5021690;28;20057;-60
2023/11/20 09:00:29;;;;;;;5.65;3.92;;;11.10;99.90;;;;;;5021661;28;20036;-60
2023/11/20 09:02:55;;;;;;;6.40;4.10;;;11.10;99.90;;;;;;5021864;28;20025;-60
2023/11/20 09:05:20;;;;;;;4.32;3.42;;;11.10;99.90;;;;;;5021570;28;20025;-60
2023/11/20 09:07:46;;;;;;;5.85;3.65;;;11.10;99.90;;;;;;5023461;28;20022;-60
2023/11/20 09:10:12;;;;;;;5.10;3.58;;;11.20;99.90;;;;;;5020879;28;20724;-60
2023/11/20 09:12:39;;;;;;;9.52;5.05;;;11.30;99.90;;;;;;5022479;28;20037;-61
2023/11/20 09:15:06;;;;;;;5.45;3.67;;;11.30;99.90;;;;;;5021374;28;20045;-60
2023/11/20 09:17:32;;;;;;;7.18;4.18;;;11.30;99.90;;;;;;5021332;28;20026;-60
2023/11/20 09:19:58;;;;;;;5.13;3.75;;;11.30;99.90;;;;;;5021305;28;20048;-60
2023/11/20 09:22:25;;;;;;;6.78;4.35;;;11.40;99.90;;;;;;5022421;28;20041;-61
2023/11/20 09:24:51;;;;;;;5.38;4.20;;;11.40;99.90;;;;;;5019261;28;20029;-60
2023/11/20 09:27:18;;;;;;;7.93;4.43;;;11.50;99.90;;;;;;5018148;28;20040;-60
2023/11/20 09:29:44;;;;;;;8.55;5.22;;;11.50;99.90;;;;;;5021656;28;20028;-60
2023/11/20 09:32:10;;;;;;;6.07;4.45;;;11.50;99.90;;;;;;5019782;28;20032;-60
2023/11/20 09:34:37;;;;;;;5.88;4.13;;;11.50;99.90;;;;;;5021070;28;20509;-60
2023/11/20 09:37:03;;;;;;;7.63;4.25;;;11.50;99.90;;;;;;5017726;28;20141;-60
2023/11/20 09:39:29;;;;;;;7.88;5.22;;;11.50;99.90;;;;;;5024186;28;20488;-60
2023/11/20 09:41:55;;;;;;;7.70;4.85;;;11.60;99.90;;;;;;5020941;28;20029;-59
2023/11/20 09:44:26;;;;;;;6.95;4.55;;;11.60;99.90;;;;;;5022590;28;20074;-60
2023/11/20 09:46:52;;;;;;;7.88;3.88;;;11.70;99.90;;;;;;5018482;28;20092;-61
2023/11/20 09:49:22;;;;;;;6.38;3.75;;;11.70;99.90;;;;;;5021729;28;20048;-60
2023/11/20 09:51:49;;;;;;;6.15;4.35;;;11.70;99.90;;;;;;5023877;28;20041;-60
2023/11/20 09:54:16;;;;;;;5.97;3.80;;;11.70;99.90;;;;;;5017422;28;20101;-60
2023/11/20 09:56:42;;;;;;;4.78;3.60;;;11.70;99.90;;;;;;5021735;28;20279;-60
2023/11/20 09:59:11;;;;;;;7.05;4.72;;;11.70;99.90;;;;;;5020609;28;20232;-60
2023/11/20 10:01:38;;;;;;;6.55;4.18;;;11.70;99.90;;;;;;5020711;28;20049;-60
2023/11/20 10:04:04;;;;;;;6.05;4.30;;;11.60;99.90;;;;;;5021060;28;20508;-60
2023/11/20 10:06:33;;;;;;;5.72;4.13;;;11.70;99.90;;;;;;5024654;28;20029;-60
2023/11/20 10:09:02;;;;;;;6.10;3.85;;;11.70;99.90;;;;;;5018458;28;20333;-60
2023/11/20 10:11:31;;;;;;;5.22;3.85;;;11.80;99.90;;;;;;5022524;28;20026;-60
2023/11/20 10:13:57;;;;;;;7.38;4.65;;;11.80;99.90;;;;;;5022597;28;20079;-60
2023/11/20 10:16:23;;;;;;;4.55;3.78;;;11.90;99.90;;;;;;5023140;28;20447;-61
2023/11/20 10:18:49;;;;;;;5.70;4.30;;;12.00;99.90;;;;;;5021077;28;20481;-60
2023/11/20 10:21:19;;;;;;;4.65;3.88;;;12.10;99.90;;;;;;5019909;28;20064;-60
2023/11/20 10:23:45;;;;;;;5.63;4.18;;;12.20;99.90;;;;;;5024082;28;20075;-60
2023/11/20 10:26:11;;;;;;;5.60;4.25;;;12.10;99.90;;;;;;5020587;28;20033;-60
2023/11/20 10:28:40;;;;;;;3.72;3.33;;;12.10;99.90;;;;;;5023137;28;20024;-60
2023/11/20 10:31:06;;;;;;;6.68;3.55;;;12.00;99.90;;;;;;5018568;28;20389;-59
2023/11/20 10:33:31;;;;;;;4.40;3.08;;;12.00;99.90;;;;;;5029510;28;20025;-60
2023/11/20 10:36:14;;;;;;;6.13;3.22;;;12.10;99.90;;;;;;5015811;28;20029;-60
2023/11/20 10:38:41;;;;;;;4.22;3.72;;;12.10;99.90;;;;;;5017008;28;20037;-60
2023/11/20 10:41:10;;;;;;;5.43;3.80;;;12.10;99.90;;;;;;5015669;28;20038;-60
2023/11/20 10:43:40;;;;;;;4.95;3.28;;;12.20;99.90;;;;;;5023252;28;20091;-59
2023/11/20 10:46:06;;;;;;;4.18;3.10;;;12.20;99.90;;;;;;5022426;28;20393;-60
2023/11/20 10:48:33;;;;;;;3.88;2.53;;;12.30;99.90;;;;;;5021256;28;20555;-61
2023/11/20 10:51:10;;;;;;;4.20;3.45;;;12.40;99.90;;;;;;5019733;28;20374;-60
2023/11/20 10:53:40;;;;;;;4.47;3.25;;;12.40;99.90;;;;;;5012372;28;20053;-59
2023/11/20 10:56:07;;;;;;;4.20;2.90;;;12.40;99.90;;;;;;5023780;28;20020;-60
2023/11/20 10:58:33;;;;;;;5.90;3.25;;;12.40;99.90;;;;;;5021457;28;20374;-60
2023/11/20 11:00:59;;;;;;;2.47;2.17;;;12.50;99.90;;;;;;5023482;28;20034;-60
2023/11/20 11:03:28;;;;;;;4.13;2.85;;;12.50;99.90;;;;;;5019459;28;20032;-60
2023/11/20 11:05:54;;;;;;;3.20;2.45;;;12.50;99.90;;;;;;5019535;28;20029;-60
2023/11/20 11:08:20;;;;;;;3.08;2.53;;;12.50;99.90;;;;;;5019450;28;20025;-60
2023/11/20 11:10:48;;;;;;;4.07;2.20;;;12.60;99.90;;;;;;5019426;28;20093;-60
2023/11/20 11:13:18;;;;;;;2.63;2.35;;;12.60;99.90;;;;;;5019902;28;20026;-60
2023/11/20 11:15:47;;;;;;;3.65;2.35;;;12.60;99.90;;;;;;5026472;28;20377;-60
2023/11/20 11:18:15;;;;;;;3.45;2.25;;;12.60;99.90;;;;;;5025804;28;20028;-60
2023/11/20 11:20:49;;;;;;;2.40;2.08;;;12.60;99.90;;;;;;5021161;28;20253;-60
2023/11/20 11:23:16;;;;;;;2.20;1.95;;;12.60;99.90;;;;;;5015961;28;20038;-59
2023/11/20 11:26:20;;;;;;;2.00;1.80;;;12.60;99.90;;;;;;5021118;28;20022;-60
2023/11/20 11:28:53;;;;;;;2.40;1.75;;;12.60;99.90;;;;;;5020082;28;20034;-59
2023/11/20 11:31:21;;;;;;;3.35;2.10;;;12.60;99.90;;;;;;5019343;28;20059;-60
2023/11/20 11:34:22;;;;;;;3.20;2.50;;;12.60;99.90;;;;;;5023068;28;20021;-60
2023/11/20 11:37:03;;;;;;;2.75;2.25;;;12.60;99.90;;;;;;5009407;28;20532;-60
2023/11/20 11:39:35;;;;;;;4.18;2.50;;;12.60;99.90;;;;;;5019290;28;20038;-60
2023/11/20 11:42:16;;;;;;;1.85;1.63;;;12.60;99.90;;;;;;5021849;28;20048;-60
2023/11/20 11:45:03;;;;;;;2.70;2.08;;;12.60;99.90;;;;;;5018717;28;20083;-60
2023/11/20 11:47:29;;;;;;;3.67;2.30;;;12.60;99.90;;;;;;5020293;28;20559;-60
2023/11/20 11:49:56;;;;;;;3.80;1.70;;;12.60;99.90;;;;;;5022034;28;20114;-60
2023/11/20 11:52:27;;;;;;;2.83;1.77;;;12.70;99.90;;;;;;5019127;28;20030;-60
2023/11/20 11:55:18;;;;;;;5.60;1.50;;;12.60;99.90;;;;;;5023419;28;20501;-60
2023/11/20 11:57:49;;;;;;;2.35;2.00;;;12.60;99.90;;;;;;5022205;28;20030;-60
2023/11/20 12:00:22;;;;;;;1.92;1.60;;;12.60;99.90;;;;;;5018900;28;20456;-60
2023/11/20 12:02:54;;;;;;;5.90;1.88;;;12.60;99.90;;;;;;5026133;28;20021;-60
2023/11/20 12:05:20;;;;;;;2.47;2.05;;;12.60;99.90;;;;;;5022420;28;20025;-60
2023/11/20 12:07:53;;;;;;;3.25;2.03;;;12.60;99.90;;;;;;5022940;28;20436;-60
2023/11/20 12:10:37;;;;;;;4.75;1.90;;;12.70;99.90;;;;;;5017147;28;20106;-60
2023/11/20 12:13:03;;;;;;;2.45;1.98;;;12.80;99.90;;;;;;5023707;28;20420;-60
2023/11/20 12:15:37;;;;;;;2.85;1.75;;;12.70;99.90;;;;;;5018174;28;20029;-60
2023/11/20 12:18:23;;;;;;;3.03;1.70;;;12.70;99.90;;;;;;5020546;28;20293;-60
2023/11/20 12:20:54;;;;;;;2.95;2.20;;;12.60;99.90;;;;;;5026069;28;20021;-62
2023/11/20 12:23:32;;;;;;;3.63;2.47;;;12.50;99.90;;;;;;5013236;28;20112;-61
2023/11/20 12:25:59;;;;;;;3.67;2.78;;;12.40;99.90;;;;;;5006530;28;20032;-61
2023/11/20 12:28:26;;;;;;;3.75;2.88;;;12.30;99.90;;;;;;5013127;28;20401;-60
2023/11/20 12:30:54;;;;;;;4.43;2.75;;;12.30;99.90;;;;;;5014038;28;20033;-60
2023/11/20 12:33:20;;;;;;;4.97;2.63;;;12.20;99.90;;;;;;5011911;28;20682;-61
2023/11/20 12:35:55;;;;;;;4.30;2.72;;;12.20;99.90;;;;;;5017838;28;20021;-60
2023/11/20 12:38:21;;;;;;;4.45;2.92;;;12.20;99.90;;;;;;5007121;28;20125;-61
2023/11/20 12:40:49;;;;;;;5.57;3.05;;;12.20;99.90;;;;;;5009024;28;20535;-61
2023/11/20 12:43:15;;;;;;;2.88;2.58;;;12.20;99.90;;;;;;5014376;28;20033;-60
2023/11/20 12:45:41;;;;;;;2.78;2.35;;;12.20;99.90;;;;;;5011711;28;20389;-61
2023/11/20 12:48:07;;;;;;;3.45;2.60;;;12.10;99.90;;;;;;5012323;28;20079;-60
2023/11/20 12:50:32;;;;;;;4.63;2.75;;;12.10;99.90;;;;;;5019002;28;20021;-61